createdAt,value
2022-12-09T00:02:11.454Z,3.90
2022-12-09T00:04:38.442Z,3.77
2022-12-09T00:07:05.191Z,4.17
2022-12-09T00:09:33.938Z,3.83
2022-12-09T00:12:04.022Z,4.07
2022-12-09T00:14:30.922Z,4.23
2022-12-09T00:16:58.163Z,3.87
2022-12-09T00:19:25.029Z,3.50
2022-12-09T00:21:54.554Z,3.73
2022-12-09T00:24:21.353Z,3.70
2022-12-09T00:26:47.998Z,3.93
2022-12-09T00:29:14.785Z,3.90
2022-12-09T00:31:41.586Z,3.93
2022-12-09T00:34:12.020Z,3.30
2022-12-09T00:36:39.054Z,4.10
2022-12-09T00:39:05.926Z,3.80
2022-12-09T00:41:33.034Z,3.87
2022-12-09T00:43:59.904Z,3.43
2022-12-09T00:46:26.676Z,3.33
2022-12-09T00:48:53.388Z,3.20
2022-12-09T00:51:22.406Z,2.87
2022-12-09T00:53:53.836Z,3.27
2022-12-09T00:56:23.855Z,3.40
2022-12-09T00:58:50.675Z,3.20
2022-12-09T01:01:17.517Z,2.77
2022-12-09T01:03:44.359Z,3.67
2022-12-09T01:06:14.749Z,3.23
2022-12-09T01:08:42.906Z,3.80
2022-12-09T01:11:17.871Z,3.00
2022-12-09T01:13:44.707Z,3.27
2022-12-09T01:16:17.344Z,2.70
2022-12-09T01:18:45.193Z,3.47
2022-12-09T01:21:12.131Z,3.20
2022-12-09T01:23:38.835Z,3.63
2022-12-09T01:26:06.741Z,3.70
2022-12-09T01:28:37.932Z,3.33
2022-12-09T01:31:19.412Z,3.00
2022-12-09T01:33:46.332Z,2.90
2022-12-09T01:36:16.895Z,3.37
2022-12-09T01:38:44.283Z,3.30
2022-12-09T01:41:10.998Z,3.33
2022-12-09T01:43:39.361Z,3.10
2022-12-09T01:46:06.447Z,3.70
2022-12-09T01:48:36.567Z,2.80
2022-12-09T01:51:10.155Z,2.90
2022-12-09T01:53:39.662Z,2.85
2022-12-09T01:56:10.868Z,3.23
2022-12-09T01:58:37.571Z,3.03
2022-12-09T02:01:04.686Z,3.30
2022-12-09T02:03:31.827Z,3.20
2022-12-09T02:05:58.891Z,3.00
2022-12-09T02:08:25.737Z,3.30
2022-12-09T02:11:14.442Z,3.10
2022-12-09T02:13:55.350Z,2.67
2022-12-09T02:16:25.557Z,2.47
2022-12-09T02:19:05.197Z,2.50
2022-12-09T02:21:34.659Z,2.93
2022-12-09T02:24:09.005Z,3.37
2022-12-09T02:27:21.228Z,2.40
2022-12-09T02:30:03.192Z,2.47
2022-12-09T02:33:07.924Z,2.77
2022-12-09T02:35:53.504Z,2.90
2022-12-09T02:38:26.042Z,3.33
2022-12-09T02:41:00.377Z,4.00
2022-12-09T02:45:56.072Z,4.50
2022-12-09T02:48:25.812Z,4.10
2022-12-09T02:50:53.794Z,4.67
2022-12-09T02:53:21.592Z,4.67
2022-12-09T02:55:49.248Z,4.40
2022-12-09T02:58:16.006Z,4.60
2022-12-09T03:00:43.065Z,5.17
2022-12-09T03:03:16.634Z,4.80
2022-12-09T03:05:56.557Z,5.47
2022-12-09T03:08:35.515Z,6.40
2022-12-09T03:11:06.893Z,6.43
2022-12-09T03:13:39.999Z,5.10
2022-12-09T03:16:31.105Z,5.17
2022-12-09T03:19:06.583Z,5.47
2022-12-09T03:21:36.656Z,6.10
2022-12-09T03:24:08.023Z,5.90
2022-12-09T03:26:35.851Z,4.73
2022-12-09T03:29:06.067Z,5.50
2022-12-09T03:31:35.064Z,5.83
2022-12-09T03:34:04.044Z,6.70
2022-12-09T03:36:37.871Z,5.67
2022-12-09T03:39:07.637Z,6.10
2022-12-09T03:41:34.878Z,5.63
2022-12-09T03:44:13.225Z,4.83
2022-12-09T03:46:40.376Z,5.40
2022-12-09T03:49:07.403Z,6.27
2022-12-09T03:51:49.316Z,6.37
2022-12-09T03:54:34.022Z,5.93
2022-12-09T03:57:01.346Z,5.83
2022-12-09T03:59:31.335Z,6.07
2022-12-09T04:01:58.243Z,5.57
2022-12-09T04:04:25.257Z,5.90
2022-12-09T04:06:53.115Z,5.23
2022-12-09T04:09:19.976Z,6.03
2022-12-09T04:11:46.957Z,5.30
2022-12-09T04:14:15.764Z,4.80
2022-12-09T04:16:43.558Z,5.40
2022-12-09T04:19:10.942Z,5.30
2022-12-09T04:21:37.943Z,4.70
2022-12-09T04:24:04.911Z,5.30
2022-12-09T04:26:31.798Z,6.10
2022-12-09T04:28:58.664Z,6.23
2022-12-09T04:31:25.795Z,5.97
2022-12-09T04:33:53.627Z,5.93
2022-12-09T04:36:21.183Z,5.43
2022-12-09T04:38:48.618Z,5.10
2022-12-09T04:41:16.311Z,4.73
2022-12-09T04:43:43.275Z,5.97
2022-12-09T04:46:16.121Z,5.23
2022-12-09T04:48:43.753Z,5.57
2022-12-09T04:51:12.094Z,4.93
2022-12-09T04:53:38.862Z,5.87
2022-12-09T04:56:09.238Z,5.27
2022-12-09T04:58:36.129Z,4.83
2022-12-09T05:01:10.603Z,5.37
2022-12-09T05:03:37.940Z,4.50
2022-12-09T05:06:06.483Z,5.03
2022-12-09T05:08:33.579Z,5.03
2022-12-09T05:11:00.832Z,4.83
2022-12-09T05:13:28.052Z,5.50
2022-12-09T05:16:13.912Z,5.13
2022-12-09T05:18:43.199Z,5.30
2022-12-09T05:21:13.148Z,5.37
2022-12-09T05:23:40.066Z,5.43
2022-12-09T05:26:08.770Z,5.37
2022-12-09T05:28:36.133Z,4.77
2022-12-09T05:31:04.841Z,5.10
2022-12-09T05:33:32.000Z,5.30
2022-12-09T05:35:58.997Z,5.83
2022-12-09T05:38:26.352Z,5.57
2022-12-09T05:40:53.712Z,6.10
2022-12-09T05:43:20.596Z,6.30
2022-12-09T05:45:47.905Z,5.60
2022-12-09T05:48:14.911Z,5.17
2022-12-09T05:50:41.735Z,5.90
2022-12-09T05:53:08.500Z,5.70
2022-12-09T05:55:35.714Z,6.37
2022-12-09T05:58:02.776Z,6.03
2022-12-09T06:00:29.755Z,5.33
2022-12-09T06:02:56.854Z,6.53
2022-12-09T06:05:23.873Z,6.53
2022-12-09T06:07:50.863Z,7.57
2022-12-09T06:10:18.347Z,6.80
2022-12-09T06:12:45.467Z,6.53
2022-12-09T06:15:15.633Z,7.00
2022-12-09T06:17:45.512Z,6.90
2022-12-09T06:20:13.268Z,7.27
2022-12-09T06:22:40.225Z,6.43
2022-12-09T06:25:07.490Z,7.37
2022-12-09T06:27:34.431Z,7.63
2022-12-09T06:30:01.268Z,7.27
2022-12-09T06:32:28.057Z,8.10
2022-12-09T06:34:55.154Z,8.03
2022-12-09T06:37:21.852Z,7.67
2022-12-09T06:39:48.636Z,7.53
2022-12-09T06:42:15.639Z,7.10
2022-12-09T06:44:42.599Z,6.70
2022-12-09T06:47:09.849Z,7.00
2022-12-09T06:49:36.940Z,8.03
2022-12-09T06:52:03.959Z,8.03
2022-12-09T06:54:30.944Z,7.23
2022-12-09T06:56:57.816Z,7.27
2022-12-09T06:59:25.423Z,6.77
2022-12-09T07:01:52.584Z,8.07
2022-12-09T07:04:19.651Z,8.00
2022-12-09T07:06:46.972Z,7.53
2022-12-09T07:09:16.593Z,6.97
2022-12-09T07:11:46.335Z,7.13
2022-12-09T07:14:14.744Z,8.47
2022-12-09T07:16:42.128Z,9.00
2022-12-09T07:19:16.296Z,8.43
2022-12-09T07:21:43.156Z,8.13
2022-12-09T07:24:11.936Z,8.83
2022-12-09T07:26:38.932Z,9.10
2022-12-09T07:29:06.619Z,9.53
2022-12-09T07:31:34.556Z,9.43
2022-12-09T07:34:01.924Z,9.87
2022-12-09T07:36:30.344Z,11.40
2022-12-09T07:39:06.132Z,10.13
2022-12-09T07:41:33.218Z,9.03
2022-12-09T07:44:00.480Z,10.30
2022-12-09T07:46:30.326Z,11.20
2022-12-09T07:48:58.354Z,11.30
2022-12-09T07:51:25.843Z,11.00
2022-12-09T07:53:53.657Z,12.63
2022-12-09T07:56:21.049Z,10.90
2022-12-09T07:58:48.788Z,12.63
2022-12-09T08:01:18.221Z,13.17
2022-12-09T08:03:46.467Z,11.53
2022-12-09T08:06:16.121Z,11.57
2022-12-09T08:08:44.283Z,11.60
2022-12-09T08:11:21.781Z,14.57
2022-12-09T08:13:49.171Z,13.30
2022-12-09T08:16:18.759Z,11.70
2022-12-09T08:18:47.129Z,11.83
2022-12-09T08:21:17.005Z,13.33
2022-12-09T08:23:44.953Z,12.87
2022-12-09T08:26:13.610Z,11.73
2022-12-09T08:28:41.069Z,12.03
2022-12-09T08:31:09.713Z,12.43
2022-12-09T08:33:37.373Z,11.47
2022-12-09T08:36:07.742Z,11.00
2022-12-09T08:38:37.109Z,10.33
2022-12-09T08:41:09.891Z,10.07
2022-12-09T08:43:36.867Z,11.10
2022-12-09T08:46:04.018Z,12.13
2022-12-09T08:48:30.854Z,11.80
2022-12-09T08:50:58.025Z,11.90
2022-12-09T08:53:24.679Z,12.73
2022-12-09T08:55:51.555Z,12.17
2022-12-09T08:58:18.640Z,12.50
2022-12-09T09:00:45.477Z,10.80
2022-12-09T09:03:12.478Z,10.80
2022-12-09T09:05:40.377Z,11.13
2022-12-09T09:08:07.436Z,12.33
2022-12-09T09:10:34.422Z,10.67
2022-12-09T09:13:01.161Z,10.93
2022-12-09T09:15:28.308Z,11.30
2022-12-09T09:17:55.064Z,11.43
2022-12-09T09:20:21.869Z,10.83
2022-12-09T09:22:49.242Z,11.60
2022-12-09T09:25:16.297Z,10.60
2022-12-09T09:27:43.386Z,11.10
2022-12-09T09:30:10.714Z,9.97
2022-12-09T09:32:38.016Z,12.20
2022-12-09T09:35:05.379Z,11.43
2022-12-09T09:37:32.316Z,10.13
2022-12-09T09:39:59.081Z,10.80
2022-12-09T09:42:34.472Z,11.20
2022-12-09T09:45:04.736Z,9.00
2022-12-09T09:47:44.060Z,10.97
2022-12-09T09:50:38.721Z,10.03
2022-12-09T09:53:26.713Z,12.68
2022-12-09T09:56:00.027Z,10.37
2022-12-09T09:58:36.636Z,12.37
2022-12-09T10:01:07.795Z,14.57
2022-12-09T10:03:56.515Z,14.47
2022-12-09T10:06:48.797Z,10.97
2022-12-09T10:09:22.000Z,12.50
2022-12-09T10:12:02.011Z,11.37
2022-12-09T10:14:40.986Z,13.20
2022-12-09T10:17:29.146Z,10.17
2022-12-09T10:20:03.624Z,11.80
2022-12-09T10:22:54.062Z,11.80
2022-12-09T10:25:26.058Z,11.60
2022-12-09T10:27:55.506Z,12.50
2022-12-09T10:30:22.458Z,13.07
2022-12-09T10:32:49.452Z,12.03
2022-12-09T10:35:19.870Z,11.17
2022-12-09T10:37:48.551Z,11.70
2022-12-09T10:40:38.268Z,9.83
2022-12-09T10:43:44.208Z,13.17
2022-12-09T10:46:20.070Z,12.70
2022-12-09T10:48:49.029Z,14.07
2022-12-09T10:51:25.151Z,13.70
2022-12-09T10:54:21.038Z,13.20
2022-12-09T10:57:05.170Z,11.80
2022-12-09T10:59:32.782Z,11.60
2022-12-09T11:02:11.507Z,10.80
2022-12-09T11:04:42.929Z,11.63
2022-12-09T11:07:13.034Z,12.23
2022-12-09T11:09:46.067Z,12.40
2022-12-09T11:12:30.918Z,13.43
2022-12-09T11:15:01.364Z,12.47
2022-12-09T11:17:33.294Z,12.43
2022-12-09T11:20:07.151Z,11.60
2022-12-09T11:22:42.302Z,12.70
2022-12-09T11:25:12.280Z,12.83
2022-12-09T11:27:43.333Z,12.80
2022-12-09T11:30:20.081Z,12.80
2022-12-09T11:32:53.791Z,13.03
2022-12-09T11:35:34.866Z,12.20
2022-12-09T11:38:21.620Z,12.00
2022-12-09T11:41:13.615Z,13.30
2022-12-09T11:43:49.622Z,12.10
2022-12-09T11:46:29.380Z,13.33
2022-12-09T11:49:22.538Z,12.73
2022-12-09T11:52:01.340Z,12.67
2022-12-09T11:54:31.451Z,12.17
2022-12-09T11:56:59.262Z,11.30
2022-12-09T11:59:48.884Z,9.67
2022-12-09T12:02:38.844Z,8.97
2022-12-09T12:05:30.129Z,11.23
2022-12-09T12:08:03.648Z,10.73
2022-12-09T12:10:35.831Z,11.10
2022-12-09T12:13:09.444Z,9.57
2022-12-09T12:15:48.615Z,9.50
2022-12-09T12:18:21.319Z,7.97
2022-12-09T12:21:06.300Z,9.93
2022-12-09T12:24:04.226Z,10.40
2022-12-09T12:27:03.186Z,15.40
2022-12-09T12:30:08.329Z,10.47
2022-12-09T12:35:21.368Z,10.80
2022-12-09T12:38:16.241Z,11.37
2022-12-09T12:41:01.674Z,11.60
2022-12-09T12:44:19.473Z,11.07
2022-12-09T12:47:06.300Z,9.33
2022-12-09T12:49:47.738Z,10.17
2022-12-09T12:52:55.106Z,10.27
2022-12-09T12:55:49.629Z,10.88
2022-12-09T12:58:33.430Z,9.60
2022-12-09T13:01:06.643Z,8.70
2022-12-09T13:04:07.713Z,9.87
2022-12-09T13:06:40.907Z,9.63
2022-12-09T13:09:23.033Z,9.83
2022-12-09T13:11:56.322Z,10.03
2022-12-09T13:14:39.892Z,8.50
2022-12-09T13:17:08.691Z,9.70
2022-12-09T13:19:41.078Z,10.30
2022-12-09T13:22:14.395Z,11.90
2022-12-09T13:24:59.943Z,10.67
2022-12-09T13:27:34.982Z,9.20
2022-12-09T13:30:06.454Z,10.73
2022-12-09T13:32:59.416Z,10.43
2022-12-09T13:35:37.519Z,8.87
2022-12-09T13:38:04.203Z,8.70
2022-12-09T13:40:36.782Z,8.83
2022-12-09T13:43:03.337Z,8.63
2022-12-09T13:45:54.768Z,9.67
2022-12-09T13:48:24.104Z,11.07
2022-12-09T13:50:59.832Z,9.67
2022-12-09T13:53:49.043Z,9.43
2022-12-09T13:56:29.052Z,10.73
2022-12-09T13:59:23.567Z,9.33
2022-12-09T14:01:56.409Z,9.32
2022-12-09T14:04:27.842Z,9.93
2022-12-09T14:07:13.328Z,14.43
2022-12-09T14:09:54.406Z,11.23
2022-12-09T14:12:27.287Z,9.83
2022-12-09T14:14:55.493Z,8.90
2022-12-09T14:17:25.163Z,8.23
2022-12-09T14:20:00.147Z,8.83
2022-12-09T14:22:26.690Z,8.77
2022-12-09T14:24:57.963Z,8.23
2022-12-09T14:27:29.190Z,8.13
2022-12-09T14:30:04.017Z,7.43
2022-12-09T14:32:52.347Z,7.07
2022-12-09T14:35:44.802Z,9.10
2022-12-09T14:38:23.459Z,8.67
2022-12-09T14:41:12.524Z,7.90
2022-12-09T14:44:08.348Z,22.50
2022-12-09T14:46:37.266Z,82.20
2022-12-09T14:49:12.489Z,38.67
2022-12-09T14:51:45.198Z,12.00
2022-12-09T14:54:19.612Z,9.97
2022-12-09T14:56:49.584Z,9.10
2022-12-09T14:59:21.895Z,11.20
2022-12-09T15:01:51.753Z,9.47
2022-12-09T15:04:41.358Z,8.90
2022-12-09T15:07:17.538Z,8.30
2022-12-09T15:09:50.612Z,11.70
2022-12-09T15:12:18.598Z,9.97
2022-12-09T15:14:45.922Z,10.07
2022-12-09T15:17:25.166Z,21.33
2022-12-09T15:20:00.145Z,19.57
2022-12-09T15:22:30.426Z,11.97
2022-12-09T15:24:57.058Z,9.10
2022-12-09T15:27:25.854Z,9.33
2022-12-09T15:29:53.555Z,8.23
2022-12-09T15:32:28.889Z,8.60
2022-12-09T15:34:56.202Z,8.80
2022-12-09T15:37:27.438Z,9.70
2022-12-09T15:40:04.272Z,7.90
2022-12-09T15:42:33.262Z,8.70
2022-12-09T15:45:04.486Z,7.87
2022-12-09T15:47:39.176Z,7.80
2022-12-09T15:50:29.036Z,9.17
2022-12-09T15:53:15.287Z,8.17
2022-12-09T15:55:50.548Z,8.23
2022-12-09T15:58:23.445Z,6.43
2022-12-09T16:00:51.121Z,7.70
2022-12-09T16:03:32.745Z,8.13
2022-12-09T16:06:05.047Z,7.10
2022-12-09T16:08:37.966Z,9.03
2022-12-09T16:11:04.949Z,9.17
2022-12-09T16:13:31.705Z,8.37
2022-12-09T16:16:00.545Z,10.47
2022-12-09T16:18:32.433Z,9.53
2022-12-09T16:21:20.927Z,9.67
2022-12-09T16:23:50.173Z,9.13
2022-12-09T16:26:24.047Z,9.07
2022-12-09T16:28:56.127Z,22.77
2022-12-09T16:31:22.909Z,30.03
2022-12-09T16:33:50.010Z,17.33
2022-12-09T16:36:24.519Z,12.33
2022-12-09T16:39:09.603Z,10.03
2022-12-09T16:41:55.897Z,12.60
2022-12-09T16:44:42.766Z,11.73
2022-12-09T16:47:11.633Z,10.03
2022-12-09T16:49:40.956Z,10.37
2022-12-09T16:52:11.481Z,9.07
2022-12-09T16:54:38.268Z,9.63
2022-12-09T16:57:04.971Z,9.77
2022-12-09T16:59:37.589Z,10.33
2022-12-09T17:02:24.236Z,8.50
2022-12-09T17:04:51.597Z,7.70
2022-12-09T17:07:18.288Z,8.60
2022-12-09T17:09:44.927Z,9.10
2022-12-09T17:12:11.665Z,8.90
2022-12-09T17:14:38.293Z,8.63
2022-12-09T17:17:04.985Z,8.37
2022-12-09T17:19:31.696Z,8.80
2022-12-09T17:21:58.400Z,8.10
2022-12-09T17:24:25.045Z,7.83
2022-12-09T17:26:51.925Z,7.90
2022-12-09T17:29:18.519Z,6.83
2022-12-09T17:31:45.179Z,7.07
2022-12-09T17:34:11.842Z,8.07
2022-12-09T17:36:38.525Z,6.90
2022-12-09T17:39:06.191Z,6.93
2022-12-09T17:41:33.371Z,6.93
2022-12-09T17:44:00.880Z,7.00
2022-12-09T17:46:27.687Z,6.13
2022-12-09T17:48:54.300Z,7.57
2022-12-09T17:51:21.051Z,6.67
2022-12-09T17:53:48.280Z,6.50
2022-12-09T17:56:21.258Z,6.60
2022-12-09T17:58:53.957Z,7.10
2022-12-09T18:01:22.646Z,7.03
2022-12-09T18:03:59.410Z,8.30
2022-12-09T18:06:31.693Z,6.33
2022-12-09T18:08:58.351Z,6.57
2022-12-09T18:11:24.912Z,6.27
2022-12-09T18:13:51.673Z,6.23
2022-12-09T18:16:18.512Z,6.17
2022-12-09T18:18:45.771Z,5.40
2022-12-09T18:21:15.999Z,5.63
2022-12-09T18:23:43.208Z,5.53
2022-12-09T18:26:14.747Z,5.43
2022-12-09T18:28:41.776Z,6.23
2022-12-09T18:31:10.196Z,6.07
2022-12-09T18:33:37.797Z,5.20
2022-12-09T18:36:10.344Z,5.43
2022-12-09T18:38:37.837Z,6.03
2022-12-09T18:41:04.667Z,6.23
2022-12-09T18:43:34.195Z,6.27
2022-12-09T18:46:25.122Z,6.00
2022-12-09T18:49:13.512Z,6.53
2022-12-09T18:51:41.418Z,7.30
2022-12-09T18:54:08.487Z,6.57
2022-12-09T18:56:36.113Z,5.73
2022-12-09T18:59:07.467Z,5.10
2022-12-09T19:01:41.027Z,7.17
2022-12-09T19:04:19.421Z,6.10
2022-12-09T19:06:47.540Z,7.30
2022-12-09T19:09:17.147Z,5.53
2022-12-09T19:11:44.952Z,6.00
2022-12-09T19:14:12.228Z,5.57
2022-12-09T19:16:38.854Z,6.17
2022-12-09T19:19:09.461Z,5.73
2022-12-09T19:21:37.239Z,5.97
2022-12-09T19:24:03.973Z,5.77
2022-12-09T19:26:32.558Z,5.43
2022-12-09T19:29:01.633Z,4.83
2022-12-09T19:31:30.707Z,5.47
2022-12-09T19:34:03.798Z,5.80
2022-12-09T19:36:31.175Z,4.73
2022-12-09T19:38:58.364Z,5.00
2022-12-09T19:41:27.791Z,5.17
2022-12-09T19:43:55.587Z,6.40
2022-12-09T19:46:22.722Z,6.23
2022-12-09T19:48:49.629Z,6.37
2022-12-09T19:51:17.992Z,5.50
2022-12-09T19:53:44.669Z,5.93
2022-12-09T19:56:16.704Z,6.20
2022-12-09T19:58:44.153Z,6.03
2022-12-09T20:01:13.148Z,6.87
2022-12-09T20:03:41.146Z,6.43
2022-12-09T20:06:10.174Z,6.60
2022-12-09T20:08:37.583Z,6.80
2022-12-09T20:11:05.587Z,5.53
2022-12-09T20:13:32.468Z,6.33
2022-12-09T20:16:06.277Z,4.97
2022-12-09T20:18:33.005Z,5.10
2022-12-09T20:21:09.260Z,4.87
2022-12-09T20:23:37.144Z,6.00
2022-12-09T20:26:14.256Z,5.00
2022-12-09T20:28:42.217Z,4.57
2022-12-09T20:31:16.940Z,4.90
2022-12-09T20:33:43.823Z,5.43
2022-12-09T20:36:13.139Z,6.07
2022-12-09T20:38:40.426Z,5.30
2022-12-09T20:41:09.956Z,5.13
2022-12-09T20:43:39.597Z,5.77
2022-12-09T20:46:14.966Z,5.77
2022-12-09T20:48:42.422Z,6.13
2022-12-09T20:51:21.611Z,6.60
2022-12-09T20:53:48.743Z,6.83
2022-12-09T20:56:16.317Z,7.30
2022-12-09T20:58:43.794Z,6.47
2022-12-09T21:01:16.103Z,5.77
2022-12-09T21:03:43.500Z,6.07
2022-12-09T21:06:11.047Z,5.83
2022-12-09T21:08:37.788Z,5.70
2022-12-09T21:11:06.288Z,6.33
2022-12-09T21:13:37.122Z,6.37
2022-12-09T21:16:13.409Z,5.57
2022-12-09T21:18:40.100Z,6.33
2022-12-09T21:21:06.706Z,7.10
2022-12-09T21:23:35.406Z,6.13
2022-12-09T21:26:06.936Z,6.17
2022-12-09T21:28:34.526Z,6.73
2022-12-09T21:31:21.882Z,6.00
2022-12-09T21:33:49.711Z,7.07
2022-12-09T21:36:23.788Z,5.73
2022-12-09T21:38:50.884Z,6.07
2022-12-09T21:41:23.199Z,7.23
2022-12-09T21:43:49.964Z,6.20
2022-12-09T21:46:19.887Z,7.73
2022-12-09T21:48:52.034Z,7.07
2022-12-09T21:51:19.928Z,7.27
2022-12-09T21:53:47.091Z,6.23
2022-12-09T21:56:25.878Z,6.53
2022-12-09T21:58:55.310Z,6.97
2022-12-09T22:01:26.009Z,5.67
2022-12-09T22:03:53.848Z,6.57
2022-12-09T22:06:20.504Z,6.37
2022-12-09T22:08:47.281Z,6.40
2022-12-09T22:11:22.837Z,6.70
2022-12-09T22:13:49.819Z,7.10
2022-12-09T22:16:19.779Z,7.33
2022-12-09T22:18:46.849Z,6.83
2022-12-09T22:21:24.617Z,6.37
2022-12-09T22:23:54.003Z,6.57
2022-12-09T22:26:21.079Z,6.93
2022-12-09T22:28:47.764Z,5.83
2022-12-09T22:31:26.134Z,5.97
2022-12-09T22:33:54.843Z,5.50
2022-12-09T22:36:22.349Z,5.80
2022-12-09T22:38:49.155Z,6.10
2022-12-09T22:41:21.409Z,5.90
2022-12-09T22:43:49.042Z,5.67
2022-12-09T22:46:18.364Z,7.00
2022-12-09T22:48:45.530Z,7.00
2022-12-09T22:51:21.727Z,5.67
2022-12-09T22:53:50.101Z,5.67
2022-12-09T22:56:16.873Z,5.87
2022-12-09T22:58:43.533Z,5.43
2022-12-09T23:01:12.000Z,5.50
2022-12-09T23:03:39.117Z,5.20
2022-12-09T23:06:06.522Z,6.37
2022-12-09T23:08:33.315Z,5.20
2022-12-09T23:11:03.038Z,5.43
2022-12-09T23:13:30.643Z,5.20
2022-12-09T23:16:01.220Z,5.30
2022-12-09T23:18:29.792Z,6.43
2022-12-09T23:20:56.418Z,5.63
2022-12-09T23:23:23.034Z,5.83
2022-12-09T23:25:49.612Z,5.50
2022-12-09T23:28:16.318Z,5.57
2022-12-09T23:30:43.012Z,5.77
2022-12-09T23:33:09.845Z,6.47
2022-12-09T23:35:38.633Z,5.93
2022-12-09T23:38:05.234Z,6.03
2022-12-09T23:40:31.843Z,5.40
2022-12-09T23:42:58.546Z,5.63
2022-12-09T23:45:25.144Z,6.43
2022-12-09T23:47:51.771Z,6.07
2022-12-09T23:50:18.705Z,5.43
2022-12-09T23:52:45.344Z,5.80
2022-12-09T23:55:12.068Z,5.80
2022-12-09T23:57:38.673Z,5.20
